Townsville Airport
YBTL : now visible

Airfield :











YOU CAN JOIN US ON...

 
LOGIN :

Register | Disclaimer

   EN    FR    IT 

 









Legend :    VFR   Marginal VFR   IFR   Intensive IFR   Very Intensive IFR
Visi :
Ceiling :
>= 8 km
>= 3000ft
5 to 8 km
1000 to 3000 ft
1500m to 5 km
500 to 1000 ft
800 to 1500m
200 to 500 ft
< 800m
< 200 ft
Symbols :   Thunderstorms  Fog  Heavy snow  Heavy precipitations  Wind > 20 kt






- Airport Elevation : 18 ft
- IATA code : TSV


YBTL - Townsville

CURRENT METAR :
  • 021630Z AUTO 20007KT 9999 // OVC053 19/17 Q1013

EXPIRED METARs :
  • 021600Z AUTO 21007KT 9999 -SHRA OVC057 19/17 Q1014
  • 021530Z AUTO 20004KT 9999 // BKN027 BKN048 OVC057 19/17 Q1014
  • 021500Z AUTO 19007KT 9999 // SCT019 BKN027 BKN043 19/17 Q1014
  • 021430Z AUTO 19007KT 9999 // SCT029 SCT035 BKN049 19/18 Q1014
  • 020300Z AUTO 14010KT 9999 // OVC055 24/16 Q1014

TAF AMD TAF YBTL
Valid from the 02 at 12:00 until the 03 at 12:00 UTC


021113Z 0212/0312 19006KT 9999 -SHRA BKN020
FM022300 16010KT 9999 -SHRA SCT020 BKN045
FM030900 19008KT 9000 -SHRA SCT010 BKN030 INTER 0212/0306 2000 SHRA BKN010
TEMPO 0306/0312 VRB15G25KT 2000 SHRA BKN008 SCT060TCU
YBBB FIR / Oceania



MET'MAP, your aeronautical weather chart ! - Copyright ORBIFLY December 2007 - Disclaimer

ORBIFLY MET'MAP TEAM :

Programming & Development : Alexandra Zaïnal
Original concept : Baudouin d'Aumeries
Technical & hardware support : Manuel Goepfert
Assistance : Marc-Olivier Méhu




SOURCES & CREDITS :

   NOAA       Earth
Advisory